createdAt,value
2022-12-31T00:00:01.628Z,4.50
2022-12-31T00:01:06.524Z,4.50
2022-12-31T00:02:10.493Z,4.50
2022-12-31T00:03:12.977Z,4.50
2022-12-31T00:04:15.193Z,4.40
2022-12-31T00:05:18.406Z,4.40
2022-12-31T00:06:23.465Z,4.50
2022-12-31T00:07:25.966Z,4.50
2022-12-31T00:08:29.366Z,4.50
2022-12-31T00:09:32.098Z,4.50
2022-12-31T00:10:40.155Z,4.50
2022-12-31T00:11:42.936Z,4.50
2022-12-31T00:12:46.144Z,4.50
2022-12-31T00:13:48.833Z,4.40
2022-12-31T00:14:51.996Z,4.50
2022-12-31T00:15:56.221Z,4.40
2022-12-31T00:16:59.687Z,4.40
2022-12-31T00:18:02.335Z,4.40
2022-12-31T00:19:08.435Z,4.40
2022-12-31T00:20:11.994Z,4.40
2022-12-31T00:21:20.887Z,4.40
2022-12-31T00:22:23.092Z,4.40
2022-12-31T00:23:27.059Z,4.40
2022-12-31T00:24:31.330Z,4.40
2022-12-31T00:25:37.658Z,4.40
2022-12-31T00:26:39.765Z,4.40
2022-12-31T00:27:41.990Z,4.40
2022-12-31T00:28:46.694Z,4.40
2022-12-31T00:29:50.351Z,4.40
2022-12-31T00:30:53.973Z,4.40
2022-12-31T00:31:58.587Z,4.40
2022-12-31T00:33:02.481Z,4.40
2022-12-31T00:34:05.164Z,4.40
2022-12-31T00:35:07.524Z,4.40
2022-12-31T00:36:13.915Z,4.40
2022-12-31T00:37:16.177Z,4.40
2022-12-31T00:38:18.437Z,4.40
2022-12-31T00:39:20.553Z,4.40
2022-12-31T00:40:22.544Z,4.40
2022-12-31T00:41:25.847Z,4.30
2022-12-31T00:42:29.868Z,4.30
2022-12-31T00:43:38.406Z,4.40
2022-12-31T00:44:42.452Z,4.30
2022-12-31T00:45:45.880Z,4.30
2022-12-31T00:46:48.898Z,4.30
2022-12-31T00:47:53.124Z,4.30
2022-12-31T00:48:56.081Z,4.20
2022-12-31T00:49:59.971Z,4.20
2022-12-31T00:51:06.449Z,4.20
2022-12-31T00:52:11.013Z,4.20
2022-12-31T00:53:17.023Z,4.20
2022-12-31T00:54:25.660Z,4.10
2022-12-31T00:55:27.544Z,4.10
2022-12-31T00:56:32.433Z,4.10
2022-12-31T00:57:35.615Z,4.10
2022-12-31T00:58:39.496Z,4.10
2022-12-31T00:59:42.195Z,4.10
2022-12-31T01:00:44.858Z,4.10
2022-12-31T01:01:47.180Z,4.10
2022-12-31T01:02:49.871Z,4.10
2022-12-31T01:03:55.707Z,4.10
2022-12-31T01:05:01.963Z,4.10
2022-12-31T01:06:04.598Z,4.10
2022-12-31T01:07:06.993Z,4.00
2022-12-31T01:08:10.630Z,4.00
2022-12-31T01:09:15.991Z,4.00
2022-12-31T01:10:38.554Z,4.00
2022-12-31T01:11:43.831Z,3.90
2022-12-31T01:12:48.454Z,3.90
2022-12-31T01:13:55.470Z,3.90
2022-12-31T01:14:59.572Z,3.90
2022-12-31T01:16:15.310Z,3.90
2022-12-31T01:17:20.328Z,3.90
2022-12-31T01:18:26.501Z,3.80
2022-12-31T01:19:30.321Z,3.80
2022-12-31T01:20:37.092Z,3.80
2022-12-31T01:21:41.215Z,3.80
2022-12-31T01:22:43.603Z,3.80
2022-12-31T01:23:46.514Z,3.80
2022-12-31T01:24:48.922Z,3.80
2022-12-31T01:25:52.106Z,3.80
2022-12-31T01:26:58.192Z,3.80
2022-12-31T01:28:00.735Z,3.70
2022-12-31T01:29:03.599Z,3.80
2022-12-31T01:30:10.231Z,3.70
2022-12-31T01:31:19.419Z,3.70
2022-12-31T01:32:21.542Z,3.70
2022-12-31T01:33:24.779Z,3.70
2022-12-31T01:34:28.094Z,3.70
2022-12-31T01:35:30.297Z,3.70
2022-12-31T01:36:34.977Z,3.60
2022-12-31T01:37:37.654Z,3.60
2022-12-31T01:38:41.721Z,3.60
2022-12-31T01:39:43.814Z,3.70
2022-12-31T01:40:47.187Z,3.60
2022-12-31T01:41:49.770Z,3.60
2022-12-31T01:42:56.138Z,3.60
2022-12-31T01:44:17.445Z,3.60
2022-12-31T01:45:19.696Z,3.50
2022-12-31T01:46:49.906Z,3.50
2022-12-31T01:47:59.572Z,3.50
2022-12-31T01:49:11.094Z,3.50
2022-12-31T01:50:26.478Z,3.50
2022-12-31T01:51:31.290Z,3.50
2022-12-31T01:52:37.906Z,3.50
2022-12-31T01:53:41.011Z,3.50
2022-12-31T01:54:47.961Z,3.40
2022-12-31T01:55:54.176Z,3.50
2022-12-31T01:57:00.177Z,3.40
2022-12-31T01:58:16.244Z,3.40
2022-12-31T01:59:20.687Z,3.40
2022-12-31T02:00:23.558Z,3.40
2022-12-31T02:01:33.011Z,3.40
2022-12-31T02:02:36.994Z,3.40
2022-12-31T02:03:42.244Z,3.40
2022-12-31T02:04:44.826Z,3.40
2022-12-31T02:05:51.865Z,3.40
2022-12-31T02:07:08.049Z,3.40
2022-12-31T02:08:14.407Z,3.40
2022-12-31T02:09:23.880Z,3.40
2022-12-31T02:10:28.131Z,3.40
2022-12-31T02:11:35.057Z,3.30
2022-12-31T02:12:39.703Z,3.40
2022-12-31T02:13:58.127Z,3.40
2022-12-31T02:15:07.087Z,3.40
2022-12-31T02:16:41.731Z,3.30
2022-12-31T02:18:05.597Z,3.30
2022-12-31T02:19:46.956Z,3.30
2022-12-31T02:21:10.178Z,3.30
2022-12-31T02:22:30.051Z,3.30
2022-12-31T02:24:08.845Z,3.30
2022-12-31T02:26:04.160Z,3.30
2022-12-31T02:27:26.306Z,3.20
2022-12-31T02:29:10.821Z,3.20
2022-12-31T02:30:41.076Z,3.20
2022-12-31T02:33:16.306Z,3.20
2022-12-31T02:34:38.997Z,3.20
2022-12-31T02:35:55.635Z,3.20
2022-12-31T02:37:00.316Z,3.30
2022-12-31T02:38:11.912Z,3.30
2022-12-31T02:39:15.110Z,3.30
2022-12-31T02:40:22.946Z,3.30
2022-12-31T02:41:43.743Z,3.20
2022-12-31T02:42:51.539Z,3.30
2022-12-31T02:43:57.040Z,3.30
2022-12-31T02:45:00.162Z,3.30
2022-12-31T02:46:30.402Z,3.20
2022-12-31T02:48:05.767Z,3.20
2022-12-31T02:49:39.163Z,3.20
2022-12-31T02:54:01.314Z,3.20
2022-12-31T03:00:17.937Z,3.20
2022-12-31T03:01:55.521Z,3.20
2022-12-31T03:03:06.359Z,3.20
2022-12-31T03:04:28.080Z,3.20
2022-12-31T03:05:40.376Z,3.20
2022-12-31T03:06:53.412Z,3.20
2022-12-31T03:07:55.843Z,3.20
2022-12-31T03:09:14.828Z,3.20
2022-12-31T03:10:20.352Z,3.20
2022-12-31T03:11:48.944Z,3.20
2022-12-31T03:13:00.508Z,3.20
2022-12-31T03:14:09.548Z,3.20
2022-12-31T03:15:27.187Z,3.20
2022-12-31T03:16:41.319Z,3.20
2022-12-31T03:18:05.679Z,3.20
2022-12-31T03:19:39.917Z,3.20
2022-12-31T03:21:11.543Z,3.20
2022-12-31T03:22:31.681Z,3.20
2022-12-31T03:24:10.659Z,3.10
2022-12-31T03:25:40.035Z,3.10
2022-12-31T03:26:44.273Z,3.10
2022-12-31T03:28:10.683Z,3.10
2022-12-31T03:29:21.847Z,3.10
2022-12-31T03:30:36.378Z,3.10
2022-12-31T03:31:45.726Z,3.10
2022-12-31T03:33:00.764Z,3.10
2022-12-31T03:34:29.232Z,3.10
2022-12-31T03:35:41.907Z,3.10
2022-12-31T03:36:50.599Z,3.10
2022-12-31T03:37:56.202Z,3.10
2022-12-31T03:39:07.674Z,3.10
2022-12-31T03:40:12.740Z,3.10
2022-12-31T03:41:31.450Z,3.10
2022-12-31T03:42:44.739Z,3.10
2022-12-31T03:44:03.496Z,3.10
2022-12-31T03:45:10.076Z,3.10
2022-12-31T03:46:19.729Z,3.10
2022-12-31T03:47:26.803Z,3.10
2022-12-31T03:49:04.295Z,3.10
2022-12-31T03:51:51.407Z,3.10
2022-12-31T03:53:58.278Z,3.10
2022-12-31T04:09:45.460Z,2.90
2022-12-31T04:11:21.151Z,2.90
2022-12-31T04:13:00.549Z,3.00
2022-12-31T04:14:12.754Z,2.90
2022-12-31T04:15:25.630Z,3.00
2022-12-31T04:16:38.165Z,3.00
2022-12-31T04:17:40.883Z,3.00
2022-12-31T04:18:44.223Z,3.10
2022-12-31T04:19:47.663Z,3.10
2022-12-31T04:20:59.846Z,3.10
2022-12-31T04:22:09.514Z,3.10
2022-12-31T04:23:14.192Z,3.10
2022-12-31T04:24:24.037Z,3.20
2022-12-31T04:25:37.955Z,3.10
2022-12-31T04:26:40.771Z,3.10
2022-12-31T04:27:48.614Z,3.10
2022-12-31T04:28:55.958Z,3.10
2022-12-31T04:30:03.198Z,3.10
2022-12-31T04:31:10.395Z,3.20
2022-12-31T04:32:15.901Z,3.20
2022-12-31T04:33:24.962Z,3.20
2022-12-31T04:34:33.138Z,3.20
2022-12-31T04:35:36.463Z,3.20
2022-12-31T04:36:43.388Z,3.10
2022-12-31T04:37:46.686Z,3.20
2022-12-31T04:38:49.635Z,3.20
2022-12-31T04:39:53.432Z,3.20
2022-12-31T04:41:15.771Z,3.10
2022-12-31T04:42:17.902Z,3.10
2022-12-31T04:43:19.999Z,3.10
2022-12-31T04:44:23.803Z,3.10
2022-12-31T04:45:26.608Z,3.10
2022-12-31T04:46:35.419Z,3.20
2022-12-31T04:47:39.477Z,3.10
2022-12-31T04:48:43.268Z,3.20
2022-12-31T04:49:46.209Z,3.20
2022-12-31T04:50:54.751Z,3.10
2022-12-31T04:51:58.357Z,3.10
2022-12-31T04:53:01.930Z,3.10
2022-12-31T05:06:53.182Z,3.10
2022-12-31T05:07:56.734Z,3.10
2022-12-31T05:09:23.127Z,3.10
2022-12-31T05:15:07.392Z,3.20
2022-12-31T05:16:14.066Z,3.20
2022-12-31T05:17:34.191Z,3.20
2022-12-31T05:18:37.320Z,3.20
2022-12-31T05:19:42.261Z,3.30
2022-12-31T05:20:47.874Z,3.30
2022-12-31T05:22:10.134Z,3.30
2022-12-31T05:23:12.614Z,3.30
2022-12-31T05:24:17.627Z,3.30
2022-12-31T05:25:21.972Z,3.30
2022-12-31T05:26:29.464Z,3.30
2022-12-31T05:28:21.937Z,3.40
2022-12-31T05:29:51.266Z,3.40
2022-12-31T05:30:55.019Z,3.40
2022-12-31T05:31:59.599Z,3.30
2022-12-31T05:33:13.883Z,3.30
2022-12-31T05:34:17.621Z,3.30
2022-12-31T05:35:19.715Z,3.30
2022-12-31T05:36:21.571Z,3.40
2022-12-31T05:37:23.580Z,3.40
2022-12-31T05:38:26.877Z,3.40
2022-12-31T05:39:29.269Z,3.40
2022-12-31T05:40:41.222Z,3.40
2022-12-31T05:41:47.613Z,3.40
2022-12-31T05:42:55.770Z,3.40
2022-12-31T05:44:20.028Z,3.50
2022-12-31T05:45:30.895Z,3.50
2022-12-31T05:46:43.620Z,3.50
2022-12-31T05:47:47.116Z,3.50
2022-12-31T05:48:55.563Z,3.50
2022-12-31T05:50:01.661Z,3.50
2022-12-31T05:51:05.085Z,3.50
2022-12-31T05:52:14.861Z,3.50
2022-12-31T05:53:17.937Z,3.50
2022-12-31T05:54:21.699Z,3.50
2022-12-31T05:55:29.092Z,3.60
2022-12-31T05:56:40.994Z,3.60
2022-12-31T05:57:45.889Z,3.70
2022-12-31T05:58:49.230Z,3.60
2022-12-31T06:00:08.784Z,3.60
2022-12-31T06:01:11.727Z,3.70
2022-12-31T06:02:15.199Z,3.60
2022-12-31T06:03:17.769Z,3.70
2022-12-31T06:04:21.685Z,3.70
2022-12-31T06:07:39.170Z,3.70
2022-12-31T06:09:47.681Z,3.70
2022-12-31T06:13:28.678Z,3.80
2022-12-31T06:14:45.893Z,3.70
2022-12-31T06:16:13.314Z,3.80
2022-12-31T06:17:18.360Z,3.80
2022-12-31T06:18:21.190Z,3.90
2022-12-31T06:19:30.836Z,3.90
2022-12-31T06:20:46.295Z,3.90
2022-12-31T06:21:57.721Z,4.00
2022-12-31T06:23:06.887Z,4.00
2022-12-31T06:24:15.944Z,4.00
2022-12-31T06:26:10.652Z,4.10
2022-12-31T06:27:45.388Z,4.10
2022-12-31T06:30:24.920Z,4.20
2022-12-31T06:31:33.676Z,4.30
2022-12-31T06:32:53.631Z,4.30
2022-12-31T06:33:58.987Z,4.40
2022-12-31T06:35:01.726Z,4.40
2022-12-31T06:36:05.941Z,4.40
2022-12-31T06:37:08.165Z,4.40
2022-12-31T06:38:13.916Z,4.40
2022-12-31T06:39:17.177Z,4.40
2022-12-31T06:40:22.703Z,4.50
2022-12-31T06:41:26.741Z,4.50
2022-12-31T06:42:31.243Z,4.50
2022-12-31T06:43:38.947Z,4.60
2022-12-31T06:44:42.285Z,4.60
2022-12-31T06:45:45.694Z,4.60
2022-12-31T06:46:51.059Z,4.60
2022-12-31T06:47:56.599Z,4.60
2022-12-31T06:48:59.754Z,4.60
2022-12-31T06:50:04.049Z,4.60
2022-12-31T06:51:17.279Z,4.60
2022-12-31T06:52:20.343Z,4.60
2022-12-31T06:53:24.802Z,4.60
2022-12-31T06:54:27.100Z,4.60
2022-12-31T06:55:29.625Z,4.60
2022-12-31T06:56:34.753Z,4.60
2022-12-31T06:57:39.960Z,4.50
2022-12-31T06:58:46.208Z,4.60
2022-12-31T06:59:48.939Z,4.60
2022-12-31T07:01:36.842Z,4.50
2022-12-31T07:02:57.212Z,4.50
2022-12-31T07:04:18.025Z,4.50
2022-12-31T07:06:15.114Z,4.50
2022-12-31T07:07:30.158Z,4.50
2022-12-31T07:09:08.869Z,4.50
2022-12-31T07:10:47.925Z,4.50
2022-12-31T07:12:23.325Z,4.60
2022-12-31T07:13:39.211Z,4.50
2022-12-31T07:14:41.408Z,4.50
2022-12-31T07:16:08.720Z,4.50
2022-12-31T07:17:45.396Z,4.60
2022-12-31T07:19:04.942Z,4.60
2022-12-31T07:20:18.565Z,4.50
2022-12-31T07:21:33.692Z,4.50
2022-12-31T07:22:36.778Z,4.50
2022-12-31T07:23:39.067Z,4.50
2022-12-31T07:24:43.316Z,4.50
2022-12-31T07:26:15.899Z,4.50
2022-12-31T07:27:26.754Z,4.50
2022-12-31T07:28:40.264Z,4.50
2022-12-31T07:30:02.041Z,4.50
2022-12-31T07:31:49.856Z,4.50
2022-12-31T07:33:07.169Z,4.50
2022-12-31T07:34:57.435Z,4.50
2022-12-31T07:36:19.917Z,4.50
2022-12-31T07:38:09.664Z,4.50
2022-12-31T07:40:01.918Z,4.50
2022-12-31T07:41:26.510Z,4.50
2022-12-31T07:42:44.870Z,4.50
2022-12-31T07:44:04.348Z,4.50
2022-12-31T07:45:27.457Z,4.50
2022-12-31T07:46:49.338Z,4.50
2022-12-31T07:47:55.291Z,4.50
2022-12-31T07:49:02.626Z,4.50
2022-12-31T07:50:05.395Z,4.50
2022-12-31T07:51:13.360Z,4.50
2022-12-31T07:52:15.867Z,4.50
2022-12-31T07:53:19.056Z,4.50
2022-12-31T07:54:22.773Z,4.50
2022-12-31T07:55:26.757Z,4.40
2022-12-31T07:56:32.286Z,4.50
2022-12-31T07:58:10.228Z,4.50
2022-12-31T07:59:40.484Z,4.40
2022-12-31T08:00:43.740Z,4.40
2022-12-31T08:02:09.207Z,4.40
2022-12-31T08:03:36.508Z,4.40
2022-12-31T08:04:59.104Z,4.30
2022-12-31T08:06:34.995Z,4.20
2022-12-31T08:08:13.004Z,4.20
2022-12-31T08:10:00.507Z,4.20
2022-12-31T08:11:37.320Z,4.20
2022-12-31T08:13:04.284Z,4.20
2022-12-31T08:14:13.824Z,4.10
2022-12-31T08:15:18.696Z,4.10
2022-12-31T08:16:22.070Z,4.10
2022-12-31T08:17:24.712Z,4.10
2022-12-31T08:18:27.071Z,4.10
2022-12-31T08:19:31.926Z,4.10
2022-12-31T08:20:40.447Z,4.10
2022-12-31T08:22:04.293Z,4.20
2022-12-31T08:23:39.243Z,4.20
2022-12-31T08:24:55.685Z,4.20
2022-12-31T08:26:36.284Z,4.20
2022-12-31T08:30:05.440Z,4.20
2022-12-31T08:31:38.811Z,4.20
2022-12-31T08:33:20.070Z,4.20
2022-12-31T08:34:46.480Z,4.20
2022-12-31T08:36:22.742Z,4.20
2022-12-31T08:37:41.838Z,4.20
2022-12-31T08:39:03.813Z,4.20
2022-12-31T08:40:21.596Z,4.20
2022-12-31T08:42:25.803Z,4.20
2022-12-31T08:44:56.016Z,4.30
2022-12-31T08:46:28.125Z,4.20
2022-12-31T08:57:49.748Z,4.20
2022-12-31T09:06:25.137Z,4.30
2022-12-31T09:08:01.811Z,4.30
2022-12-31T09:09:14.310Z,4.40
2022-12-31T09:10:40.980Z,4.40
2022-12-31T09:11:58.123Z,4.40
2022-12-31T09:13:35.323Z,4.40
2022-12-31T09:14:59.832Z,4.40
2022-12-31T09:16:59.025Z,4.40
2022-12-31T09:18:01.273Z,4.50
2022-12-31T09:19:03.534Z,4.50
2022-12-31T09:20:06.453Z,4.40
2022-12-31T09:21:11.298Z,4.50
2022-12-31T09:22:13.490Z,4.50
2022-12-31T09:23:15.912Z,4.50
2022-12-31T09:24:18.383Z,4.60
2022-12-31T09:25:22.855Z,4.60
2022-12-31T09:26:50.317Z,4.60
2022-12-31T09:28:14.450Z,4.60
2022-12-31T09:29:23.686Z,4.60
2022-12-31T09:30:30.963Z,4.60
2022-12-31T09:31:49.913Z,4.60
2022-12-31T09:33:18.406Z,4.60
2022-12-31T09:34:56.960Z,4.60
2022-12-31T09:36:03.484Z,4.60
2022-12-31T09:37:37.248Z,4.60
2022-12-31T09:39:08.852Z,4.60
2022-12-31T09:40:52.040Z,4.60
2022-12-31T09:42:04.898Z,4.60
2022-12-31T09:44:05.381Z,4.60
2022-12-31T09:45:43.328Z,4.60
2022-12-31T09:46:58.911Z,4.60
2022-12-31T09:48:38.563Z,4.60
2022-12-31T09:59:04.122Z,4.50
2022-12-31T10:03:21.911Z,4.50
2022-12-31T10:22:32.185Z,4.60
2022-12-31T10:23:44.415Z,4.60
2022-12-31T10:25:15.830Z,4.60
2022-12-31T10:26:48.492Z,4.60
2022-12-31T10:30:24.537Z,4.60
2022-12-31T10:31:48.686Z,4.60
2022-12-31T11:44:27.607Z,5.00
2022-12-31T11:48:44.062Z,5.00
2022-12-31T11:50:30.428Z,5.00
2022-12-31T11:52:24.520Z,5.10
2022-12-31T12:06:41.984Z,5.10
2022-12-31T12:11:30.261Z,5.10
2022-12-31T12:20:20.852Z,5.10
2022-12-31T12:38:59.053Z,5.20
2022-12-31T12:51:38.120Z,5.20
2022-12-31T12:55:59.648Z,5.20
2022-12-31T13:05:52.354Z,5.30
2022-12-31T13:25:20.187Z,5.40
2022-12-31T13:26:49.685Z,5.40
2022-12-31T14:07:56.512Z,5.50
2022-12-31T14:10:01.896Z,5.60
2022-12-31T14:12:04.305Z,5.60
2022-12-31T14:13:22.420Z,5.60
2022-12-31T14:14:38.255Z,5.60
2022-12-31T14:16:08.910Z,5.60
2022-12-31T14:19:05.118Z,5.60
2022-12-31T14:20:21.381Z,5.60
2022-12-31T14:21:36.104Z,5.60
2022-12-31T14:23:26.254Z,5.70
2022-12-31T14:24:41.930Z,5.70
2022-12-31T14:25:50.300Z,5.70
2022-12-31T14:26:57.576Z,5.70
2022-12-31T14:28:04.784Z,5.70
2022-12-31T14:29:14.219Z,5.70
2022-12-31T14:30:20.601Z,5.70
2022-12-31T14:31:48.634Z,5.80
2022-12-31T14:33:02.896Z,5.80
2022-12-31T14:34:30.298Z,5.80
2022-12-31T14:35:51.551Z,5.70
2022-12-31T14:37:14.887Z,5.70
2022-12-31T14:38:26.889Z,5.70
2022-12-31T14:39:35.228Z,5.70
2022-12-31T14:41:13.745Z,5.80
2022-12-31T14:42:45.738Z,5.80
2022-12-31T14:44:12.862Z,5.70
2022-12-31T14:45:29.026Z,5.80
2022-12-31T14:48:54.950Z,5.80
2022-12-31T14:50:25.702Z,5.80
2022-12-31T14:51:38.141Z,5.80
2022-12-31T14:53:11.630Z,5.70
2022-12-31T14:54:40.206Z,5.80
2022-12-31T14:55:43.707Z,5.80
2022-12-31T14:56:46.171Z,5.80
2022-12-31T14:59:29.727Z,5.80
2022-12-31T15:00:36.279Z,5.80
2022-12-31T15:01:45.998Z,5.90
2022-12-31T15:02:59.297Z,5.90
2022-12-31T15:04:01.791Z,5.90
2022-12-31T15:05:15.902Z,5.90
2022-12-31T15:06:28.831Z,6.00
2022-12-31T15:07:41.081Z,6.10
2022-12-31T15:08:55.769Z,6.10
2022-12-31T15:10:19.004Z,6.10
2022-12-31T15:11:56.908Z,6.10
2022-12-31T15:13:14.643Z,6.10
2022-12-31T15:14:41.971Z,6.10
2022-12-31T15:16:02.733Z,6.10
2022-12-31T15:17:25.871Z,6.10
2022-12-31T15:19:03.857Z,6.10
2022-12-31T15:20:10.125Z,6.10
2022-12-31T15:21:34.219Z,6.10
2022-12-31T15:22:50.972Z,6.10
2022-12-31T15:23:53.757Z,6.10
2022-12-31T15:24:56.569Z,6.10
2022-12-31T15:26:02.805Z,6.20
2022-12-31T15:27:17.089Z,6.20
2022-12-31T15:28:38.497Z,6.20
2022-12-31T15:29:45.410Z,6.20
2022-12-31T15:30:52.507Z,6.20
2022-12-31T15:31:57.102Z,6.30
2022-12-31T15:33:14.841Z,6.30
2022-12-31T15:34:31.602Z,6.20
2022-12-31T15:35:57.601Z,6.20
2022-12-31T15:37:08.888Z,6.20
2022-12-31T15:38:14.836Z,6.20
2022-12-31T15:39:52.804Z,6.20
2022-12-31T15:42:18.651Z,6.20
2022-12-31T15:43:31.679Z,6.20
2022-12-31T15:45:06.232Z,6.10
2022-12-31T15:46:20.596Z,6.10
2022-12-31T15:47:39.881Z,6.10
2022-12-31T15:48:52.320Z,6.20
2022-12-31T15:50:22.364Z,6.20
2022-12-31T15:51:57.674Z,6.20
2022-12-31T15:53:17.338Z,6.20
2022-12-31T15:54:33.753Z,6.20
2022-12-31T15:55:53.075Z,6.20
2022-12-31T15:57:09.370Z,6.20
2022-12-31T15:59:45.592Z,6.20
2022-12-31T16:01:20.120Z,6.30
2022-12-31T16:02:28.466Z,6.30
2022-12-31T16:03:33.015Z,6.30
2022-12-31T16:04:41.829Z,6.30
2022-12-31T16:05:47.976Z,6.30
2022-12-31T16:06:51.440Z,6.30
2022-12-31T16:07:59.067Z,6.30
2022-12-31T16:09:02.022Z,6.30
2022-12-31T16:10:06.015Z,6.40
2022-12-31T16:11:11.120Z,6.40
2022-12-31T16:12:21.656Z,6.40
2022-12-31T16:13:25.637Z,6.40
2022-12-31T16:14:37.460Z,6.40
2022-12-31T16:15:40.810Z,6.40
2022-12-31T16:16:53.344Z,6.40
2022-12-31T16:18:22.584Z,6.40
2022-12-31T16:19:51.875Z,6.40
2022-12-31T16:20:56.585Z,6.40
2022-12-31T16:22:03.130Z,6.40
2022-12-31T16:23:31.375Z,6.40
2022-12-31T16:24:48.944Z,6.40
2022-12-31T16:26:02.690Z,6.40
2022-12-31T16:27:12.541Z,6.40
2022-12-31T16:28:20.439Z,6.40
2022-12-31T16:29:24.636Z,6.40
2022-12-31T16:30:29.889Z,6.40
2022-12-31T16:31:33.876Z,6.50
2022-12-31T16:32:38.624Z,6.40
2022-12-31T16:33:40.870Z,6.40
2022-12-31T16:34:49.150Z,6.40
2022-12-31T16:36:07.418Z,6.40
2022-12-31T16:37:21.456Z,6.40
2022-12-31T16:38:35.161Z,6.40
2022-12-31T16:39:39.616Z,6.40
2022-12-31T16:40:44.675Z,6.40
2022-12-31T16:41:47.303Z,6.40
2022-12-31T16:42:49.595Z,6.40
2022-12-31T16:43:51.713Z,6.40
2022-12-31T16:44:55.889Z,6.40
2022-12-31T16:46:09.474Z,6.40
2022-12-31T16:47:34.491Z,6.40
2022-12-31T16:48:37.802Z,6.50
2022-12-31T16:49:42.413Z,6.50
2022-12-31T16:50:50.766Z,6.40
2022-12-31T16:52:18.070Z,6.40
2022-12-31T16:53:25.260Z,6.40
2022-12-31T16:54:37.229Z,6.40
2022-12-31T16:55:41.208Z,6.40
2022-12-31T16:56:43.433Z,6.40
2022-12-31T16:57:55.883Z,6.40
2022-12-31T16:59:07.135Z,6.40
2022-12-31T17:00:15.906Z,6.40
2022-12-31T17:01:23.692Z,6.40
2022-12-31T17:02:49.272Z,6.40
2022-12-31T17:03:57.763Z,6.40
2022-12-31T17:05:01.370Z,6.40
2022-12-31T17:06:06.696Z,6.40
2022-12-31T17:07:31.644Z,6.40
2022-12-31T17:08:45.988Z,6.40
2022-12-31T17:09:48.697Z,6.40
2022-12-31T17:10:51.456Z,6.40
2022-12-31T17:11:56.629Z,6.40
2022-12-31T17:13:27.143Z,6.40
2022-12-31T17:14:33.318Z,6.40
2022-12-31T17:15:46.916Z,6.40
2022-12-31T17:17:02.666Z,6.40
2022-12-31T17:18:06.195Z,6.40
2022-12-31T17:19:45.418Z,6.40
2022-12-31T17:20:50.967Z,6.40
2022-12-31T17:21:56.667Z,6.40
2022-12-31T17:23:07.860Z,6.40
2022-12-31T17:24:19.380Z,6.40
2022-12-31T17:25:28.336Z,6.30
2022-12-31T17:26:33.426Z,6.30
2022-12-31T17:27:38.367Z,6.40
2022-12-31T17:29:09.961Z,6.30
2022-12-31T17:31:02.649Z,6.40
2022-12-31T17:32:27.866Z,6.40
2022-12-31T17:33:31.460Z,6.40
2022-12-31T17:34:50.247Z,6.30
2022-12-31T17:36:14.872Z,6.40
2022-12-31T17:37:22.514Z,6.40
2022-12-31T17:38:35.573Z,6.40
2022-12-31T17:40:40.983Z,6.40
2022-12-31T17:41:27.898Z,6.40
2022-12-31T17:42:40.464Z,6.40
2022-12-31T17:43:45.338Z,6.40
2022-12-31T17:44:47.824Z,6.40
2022-12-31T17:45:54.546Z,6.40
2022-12-31T17:46:58.147Z,6.40
2022-12-31T17:48:00.598Z,6.40
2022-12-31T17:49:03.271Z,6.40
2022-12-31T17:50:10.940Z,6.50
2022-12-31T17:51:16.534Z,6.40
2022-12-31T17:52:26.769Z,6.40
2022-12-31T17:53:29.125Z,6.40
2022-12-31T17:54:34.655Z,6.40
2022-12-31T17:56:02.565Z,6.40
2022-12-31T17:57:10.917Z,6.40
2022-12-31T17:58:51.071Z,6.40
2022-12-31T17:59:58.706Z,6.40
2022-12-31T18:01:11.667Z,6.30
2022-12-31T18:02:20.171Z,6.40
2022-12-31T18:03:31.041Z,6.40
2022-12-31T18:04:39.604Z,6.40
2022-12-31T18:05:57.049Z,6.40
2022-12-31T18:07:00.250Z,6.40
2022-12-31T18:08:06.361Z,6.40
2022-12-31T18:09:18.397Z,6.40
2022-12-31T18:10:24.212Z,6.40
2022-12-31T18:11:31.714Z,6.40
2022-12-31T18:12:36.496Z,6.40
2022-12-31T18:13:50.390Z,6.40
2022-12-31T18:14:57.221Z,6.40
2022-12-31T18:15:59.349Z,6.40
2022-12-31T18:17:02.879Z,6.40
2022-12-31T18:18:25.953Z,6.40
2022-12-31T18:20:03.681Z,6.40
2022-12-31T18:21:12.725Z,6.40
2022-12-31T18:22:21.026Z,6.40
2022-12-31T18:23:43.615Z,6.40
2022-12-31T18:24:46.823Z,6.40
2022-12-31T18:25:52.282Z,6.40
2022-12-31T18:26:57.506Z,6.40
2022-12-31T18:27:59.721Z,6.40
2022-12-31T18:29:17.094Z,6.40
2022-12-31T18:30:19.553Z,6.40
2022-12-31T18:31:30.135Z,6.40
2022-12-31T18:32:33.431Z,6.50
2022-12-31T18:33:35.496Z,6.50
2022-12-31T18:34:37.429Z,6.40
2022-12-31T18:36:07.597Z,6.50
2022-12-31T18:37:19.644Z,6.50
2022-12-31T18:38:23.585Z,6.50
2022-12-31T18:39:25.612Z,6.50
2022-12-31T18:40:28.231Z,6.50
2022-12-31T18:41:39.361Z,6.50
2022-12-31T18:42:41.993Z,6.50
2022-12-31T18:43:46.234Z,6.50
2022-12-31T18:44:49.590Z,6.50
2022-12-31T18:45:54.337Z,6.50
2022-12-31T18:46:56.928Z,6.50
2022-12-31T18:47:59.075Z,6.60
2022-12-31T18:49:01.404Z,6.50
2022-12-31T18:50:04.034Z,6.60
2022-12-31T18:51:07.600Z,6.50
2022-12-31T18:52:16.962Z,6.50
2022-12-31T18:53:25.330Z,6.60
2022-12-31T18:54:28.279Z,6.60
2022-12-31T18:55:39.838Z,6.60
2022-12-31T18:56:48.324Z,6.60
2022-12-31T18:57:52.729Z,6.60
2022-12-31T18:58:55.482Z,6.50
2022-12-31T18:59:57.567Z,6.60
2022-12-31T19:00:59.774Z,6.60
2022-12-31T19:02:02.005Z,6.50
2022-12-31T19:03:06.356Z,6.60
2022-12-31T19:04:22.884Z,6.60
2022-12-31T19:05:32.106Z,6.60
2022-12-31T19:06:34.252Z,6.60
2022-12-31T19:07:43.488Z,6.60
2022-12-31T19:08:49.605Z,6.60
2022-12-31T19:09:58.069Z,6.60
2022-12-31T19:11:02.129Z,6.60
2022-12-31T19:12:04.738Z,6.60
2022-12-31T19:13:06.868Z,6.60
2022-12-31T19:14:21.920Z,6.60
2022-12-31T19:15:27.870Z,6.60
2022-12-31T19:16:31.226Z,6.60
2022-12-31T19:17:33.432Z,6.60
2022-12-31T19:18:35.269Z,6.70
2022-12-31T19:19:37.984Z,6.60
2022-12-31T19:20:41.257Z,6.60
2022-12-31T19:21:44.405Z,6.60
2022-12-31T19:22:46.622Z,6.60
2022-12-31T19:23:50.012Z,6.60
2022-12-31T19:24:52.193Z,6.60
2022-12-31T19:25:55.829Z,6.60
2022-12-31T19:26:57.912Z,6.60
2022-12-31T19:28:00.972Z,6.60
2022-12-31T19:29:03.046Z,6.60
2022-12-31T19:30:05.664Z,6.70
2022-12-31T19:31:07.663Z,6.70
2022-12-31T19:32:09.671Z,6.70
2022-12-31T19:33:12.757Z,6.70
2022-12-31T19:34:16.777Z,6.80
2022-12-31T19:35:20.270Z,6.60
2022-12-31T19:36:22.240Z,6.60
2022-12-31T19:37:24.442Z,6.70
2022-12-31T19:38:29.769Z,6.70
2022-12-31T19:39:32.273Z,6.70
2022-12-31T19:40:34.397Z,6.60
2022-12-31T19:41:36.454Z,6.70
2022-12-31T19:42:38.532Z,6.70
2022-12-31T19:43:40.674Z,6.70
2022-12-31T19:44:42.962Z,6.70
2022-12-31T19:45:46.041Z,6.80
2022-12-31T19:46:49.429Z,6.70
2022-12-31T19:47:54.880Z,6.80
2022-12-31T19:48:57.073Z,6.80
2022-12-31T19:49:59.763Z,6.70
2022-12-31T19:51:09.843Z,6.80
2022-12-31T19:52:13.851Z,6.80
2022-12-31T19:53:21.572Z,6.80
2022-12-31T19:54:25.731Z,6.80
2022-12-31T19:55:28.517Z,6.80
2022-12-31T19:56:31.615Z,6.90
2022-12-31T19:57:39.144Z,6.90
2022-12-31T19:58:42.857Z,6.90
2022-12-31T19:59:48.609Z,6.90
2022-12-31T20:02:17.554Z,6.90
2022-12-31T20:03:22.243Z,6.90
2022-12-31T20:04:24.498Z,6.90
2022-12-31T20:05:39.827Z,6.90
2022-12-31T20:06:45.510Z,6.90
2022-12-31T20:07:47.957Z,6.90
2022-12-31T20:08:55.583Z,7.00
2022-12-31T20:10:01.432Z,7.00
2022-12-31T20:11:23.891Z,6.90
2022-12-31T20:12:31.566Z,7.00
2022-12-31T20:13:37.921Z,6.90
2022-12-31T20:14:40.290Z,6.90
2022-12-31T20:16:01.428Z,6.90
2022-12-31T20:17:08.242Z,6.90
2022-12-31T20:18:10.688Z,6.90
2022-12-31T20:19:12.985Z,6.90
2022-12-31T20:20:20.820Z,6.90
2022-12-31T20:21:25.565Z,7.00
2022-12-31T20:22:28.715Z,6.90
2022-12-31T20:23:35.818Z,7.00
2022-12-31T20:26:03.020Z,7.00
2022-12-31T20:27:06.297Z,7.00
2022-12-31T20:28:11.327Z,7.00
2022-12-31T20:29:14.413Z,7.00
2022-12-31T20:30:19.762Z,7.00
2022-12-31T20:31:25.773Z,7.10
2022-12-31T20:32:29.831Z,7.10
2022-12-31T20:33:32.364Z,7.10
2022-12-31T20:34:34.411Z,7.10
2022-12-31T20:36:01.942Z,7.10
2022-12-31T20:37:06.643Z,7.10
2022-12-31T20:38:09.794Z,7.10
2022-12-31T20:39:13.258Z,7.10
2022-12-31T20:40:59.205Z,7.10
2022-12-31T20:42:05.658Z,7.10
2022-12-31T20:43:10.712Z,7.10
2022-12-31T20:44:19.810Z,7.10
2022-12-31T20:45:23.330Z,7.00
2022-12-31T20:46:38.175Z,7.10
2022-12-31T20:47:40.446Z,7.10
2022-12-31T20:48:43.423Z,7.10
2022-12-31T20:50:10.208Z,7.10
2022-12-31T20:51:07.724Z,7.10
2022-12-31T20:52:10.348Z,7.10
2022-12-31T20:53:12.699Z,7.10
2022-12-31T20:54:14.646Z,7.10
2022-12-31T20:55:18.246Z,7.10
2022-12-31T20:56:20.852Z,7.20
2022-12-31T20:57:30.148Z,7.20
2022-12-31T20:58:36.061Z,7.20
2022-12-31T20:59:40.950Z,7.20
2022-12-31T21:00:52.492Z,7.20
2022-12-31T21:02:20.584Z,7.20
2022-12-31T21:04:02.194Z,7.20
2022-12-31T21:04:42.972Z,7.20
2022-12-31T21:05:49.688Z,7.20
2022-12-31T21:06:53.704Z,7.30
2022-12-31T21:07:55.621Z,7.30
2022-12-31T21:09:00.138Z,7.30
2022-12-31T21:10:02.424Z,7.40
2022-12-31T21:11:26.026Z,7.30